createdAt,value
2018-08-17T00:01:17.831Z,99.90
2018-08-17T00:03:56.351Z,99.90
2018-08-17T00:06:34.835Z,99.90
2018-08-17T00:09:14.701Z,99.90
2018-08-17T00:11:48.524Z,99.90
2018-08-17T00:14:21.407Z,99.90
2018-08-17T00:16:54.168Z,99.90
2018-08-17T00:19:26.576Z,99.90
2018-08-17T00:21:58.366Z,99.90
2018-08-17T00:24:31.027Z,99.90
2018-08-17T00:27:04.182Z,99.90
2018-08-17T00:29:36.785Z,99.90
2018-08-17T00:32:08.812Z,99.90
2018-08-17T00:34:41.709Z,99.90
2018-08-17T00:37:15.800Z,99.90
2018-08-17T00:39:47.976Z,99.90
2018-08-17T00:42:19.760Z,99.90
2018-08-17T00:44:51.907Z,99.90
2018-08-17T00:47:24.078Z,99.90
2018-08-17T00:49:56.344Z,99.90
2018-08-17T00:52:28.392Z,99.90
2018-08-17T00:55:00.560Z,99.90
2018-08-17T00:57:32.589Z,99.90
2018-08-17T01:00:07.037Z,99.90
2018-08-17T01:02:37.272Z,99.90
2018-08-17T01:05:08.492Z,99.90
2018-08-17T01:07:38.959Z,99.90
2018-08-17T01:10:09.795Z,99.90
2018-08-17T01:12:40.283Z,99.90
2018-08-17T01:15:10.403Z,99.90
2018-08-17T01:17:41.839Z,99.90
2018-08-17T01:20:13.417Z,99.90
2018-08-17T01:22:44.723Z,99.90
2018-08-17T01:25:17.036Z,99.90
2018-08-17T01:27:48.445Z,99.90
2018-08-17T01:30:19.288Z,99.90
2018-08-17T01:32:54.862Z,99.90
2018-08-17T01:35:28.298Z,99.90
2018-08-17T01:37:59.252Z,99.90
2018-08-17T01:40:30.580Z,99.90
2018-08-17T01:43:02.983Z,99.90
2018-08-17T01:45:35.377Z,99.90
2018-08-17T01:48:06.340Z,99.90
2018-08-17T01:50:37.666Z,99.90
2018-08-17T01:53:09.231Z,99.90
2018-08-17T01:55:40.196Z,99.90
2018-08-17T01:58:11.746Z,99.90
2018-08-17T02:00:42.962Z,99.90
2018-08-17T02:03:14.762Z,99.90
2018-08-17T02:05:45.352Z,99.90
2018-08-17T02:08:16.937Z,99.90
2018-08-17T02:10:50.065Z,99.90
2018-08-17T02:13:22.309Z,99.90
2018-08-17T02:15:53.673Z,99.90
2018-08-17T02:18:24.639Z,99.90
2018-08-17T02:20:56.043Z,99.90
2018-08-17T02:23:28.082Z,99.90
2018-08-17T02:25:59.049Z,99.90
2018-08-17T02:28:29.883Z,99.90
2018-08-17T02:31:01.127Z,99.90
2018-08-17T02:33:32.770Z,99.90
2018-08-17T02:36:04.567Z,99.90
2018-08-17T02:38:37.819Z,99.90
2018-08-17T02:41:09.605Z,99.90
2018-08-17T02:43:40.219Z,99.90
2018-08-17T02:46:13.935Z,99.90
2018-08-17T02:48:44.901Z,99.90
2018-08-17T02:51:16.237Z,99.90
2018-08-17T02:53:47.927Z,99.90
2018-08-17T02:56:18.683Z,99.90
2018-08-17T02:58:49.588Z,99.90
2018-08-17T03:01:21.265Z,99.90
2018-08-17T03:03:52.826Z,99.90
2018-08-17T03:06:26.707Z,99.90
2018-08-17T03:08:57.635Z,99.90
2018-08-17T03:11:30.027Z,99.90
2018-08-17T03:14:01.600Z,99.90
2018-08-17T03:16:33.160Z,99.90
2018-08-17T03:19:05.313Z,99.90
2018-08-17T03:21:37.519Z,99.90
2018-08-17T03:24:08.701Z,99.90
2018-08-17T03:26:41.846Z,99.90
2018-08-17T03:29:13.001Z,99.90
2018-08-17T03:31:43.982Z,99.90
2018-08-17T03:34:14.922Z,99.90
2018-08-17T03:36:47.684Z,99.90
2018-08-17T03:39:20.104Z,99.90
2018-08-17T03:41:52.742Z,99.90
2018-08-17T03:44:28.006Z,99.90
2018-08-17T03:46:59.338Z,99.90
2018-08-17T03:49:30.300Z,99.90
2018-08-17T03:52:02.588Z,99.90
2018-08-17T03:54:33.938Z,99.90
2018-08-17T03:57:05.462Z,99.90
2018-08-17T03:59:36.665Z,99.90
2018-08-17T04:02:08.460Z,99.90
2018-08-17T04:04:39.812Z,99.90
2018-08-17T04:07:11.944Z,99.90
2018-08-17T04:09:43.385Z,99.90
2018-08-17T04:12:14.122Z,99.90
2018-08-17T04:14:44.956Z,99.90
2018-08-17T04:17:17.871Z,99.90
2018-08-17T04:19:48.925Z,99.90
2018-08-17T04:22:20.352Z,99.90
2018-08-17T04:24:52.036Z,99.90
2018-08-17T04:27:24.682Z,99.90
2018-08-17T04:29:56.278Z,99.90
2018-08-17T04:32:26.978Z,99.90
2018-08-17T04:34:57.206Z,99.90
2018-08-17T04:37:29.124Z,99.90
2018-08-17T04:40:00.931Z,99.90
2018-08-17T04:42:32.391Z,99.90
2018-08-17T04:45:05.995Z,99.90
2018-08-17T04:47:38.155Z,99.90
2018-08-17T04:50:10.412Z,99.90
2018-08-17T04:52:42.105Z,99.90
2018-08-17T04:55:13.306Z,99.90
2018-08-17T04:57:44.027Z,99.90
2018-08-17T05:00:15.217Z,99.90
2018-08-17T05:02:46.540Z,99.90
2018-08-17T05:05:16.938Z,99.90
2018-08-17T05:07:48.579Z,99.90
2018-08-17T05:10:19.189Z,99.90
2018-08-17T05:12:55.795Z,99.90
2018-08-17T05:15:26.766Z,99.90
2018-08-17T05:17:58.088Z,99.90
2018-08-17T05:20:30.472Z,99.90
2018-08-17T05:23:02.992Z,99.90
2018-08-17T05:25:34.069Z,99.90
2018-08-17T05:28:05.652Z,99.90
2018-08-17T05:30:38.397Z,99.90
2018-08-17T05:33:10.470Z,99.90
2018-08-17T05:35:41.935Z,99.90
2018-08-17T05:38:13.561Z,99.90
2018-08-17T05:40:48.755Z,99.90
2018-08-17T05:43:20.776Z,99.90
2018-08-17T05:48:44.046Z,99.90
2018-08-17T05:51:15.376Z,99.90
2018-08-17T05:53:47.061Z,99.90
2018-08-17T05:56:18.037Z,99.90
2018-08-17T05:58:49.465Z,99.90
2018-08-17T06:01:21.381Z,99.90
2018-08-17T06:03:52.633Z,99.90
2018-08-17T06:06:23.900Z,99.90
2018-08-17T06:08:55.692Z,99.90
2018-08-17T06:11:26.411Z,99.90
2018-08-17T06:13:57.022Z,99.90
2018-08-17T06:16:28.832Z,99.90
2018-08-17T06:19:00.910Z,99.90
2018-08-17T06:21:32.198Z,99.90
2018-08-17T06:24:03.900Z,99.90
2018-08-17T06:26:34.702Z,99.90
2018-08-17T06:29:05.810Z,99.90
2018-08-17T06:31:37.509Z,99.90
2018-08-17T06:34:08.444Z,99.90
2018-08-17T06:36:39.674Z,99.90
2018-08-17T06:39:12.063Z,99.90
2018-08-17T06:41:43.005Z,99.90
2018-08-17T06:44:13.244Z,99.90
2018-08-17T06:46:43.594Z,99.90
2018-08-17T06:49:14.339Z,99.90
2018-08-17T06:51:44.577Z,99.90
2018-08-17T06:54:15.415Z,99.90
2018-08-17T06:56:47.208Z,99.90
2018-08-17T06:59:17.805Z,99.90
2018-08-17T07:01:48.771Z,99.90
2018-08-17T07:04:19.486Z,99.90
2018-08-17T07:06:50.924Z,99.90
2018-08-17T07:09:21.987Z,99.90
2018-08-17T07:11:53.335Z,99.90
2018-08-17T07:14:24.781Z,99.90
2018-08-17T07:16:55.619Z,99.90
2018-08-17T07:19:26.942Z,99.90
2018-08-17T07:21:58.043Z,99.90
2018-08-17T07:24:30.065Z,99.90
2018-08-17T07:27:01.274Z,99.90
2018-08-17T07:29:32.590Z,99.90
2018-08-17T07:32:07.979Z,99.90
2018-08-17T07:34:41.113Z,99.90
2018-08-17T07:37:12.682Z,99.90
2018-08-17T07:39:43.864Z,99.90
2018-08-17T07:42:15.098Z,99.90
2018-08-17T07:44:46.520Z,99.90
2018-08-17T07:47:17.856Z,99.90
2018-08-17T07:49:49.028Z,99.90
2018-08-17T07:52:19.996Z,99.90
2018-08-17T07:54:54.912Z,99.90
2018-08-17T07:57:26.114Z,99.90
2018-08-17T07:59:56.599Z,99.90
2018-08-17T08:02:27.927Z,99.90
2018-08-17T08:04:59.968Z,99.90
2018-08-17T08:07:32.887Z,99.90
2018-08-17T08:10:03.821Z,99.90
2018-08-17T08:12:35.534Z,99.90
2018-08-17T08:15:06.326Z,99.90
2018-08-17T08:17:37.444Z,99.90
2018-08-17T08:20:20.674Z,99.90
2018-08-17T08:23:01.085Z,99.90
2018-08-17T08:25:32.732Z,99.90
2018-08-17T08:28:04.677Z,99.90
2018-08-17T08:30:38.868Z,99.90
2018-08-17T08:33:10.056Z,99.90
2018-08-17T08:35:41.740Z,99.90
2018-08-17T08:38:12.944Z,99.90
2018-08-17T08:40:44.156Z,99.90
2018-08-17T08:43:15.348Z,99.90
2018-08-17T08:45:46.305Z,99.90
2018-08-17T08:48:17.028Z,99.90
2018-08-17T08:50:48.240Z,99.90
2018-08-17T08:53:19.308Z,99.90
2018-08-17T08:55:50.951Z,99.90
2018-08-17T08:58:21.114Z,99.90
2018-08-17T09:00:51.716Z,99.90
2018-08-17T09:03:22.198Z,99.90
2018-08-17T09:05:54.001Z,99.90
2018-08-17T09:08:24.485Z,99.90
2018-08-17T09:10:57.145Z,99.90
2018-08-17T09:13:28.453Z,99.90
2018-08-17T09:15:59.782Z,99.90
2018-08-17T09:18:31.456Z,99.90
2018-08-17T09:21:02.285Z,99.90
2018-08-17T09:23:32.765Z,99.90
2018-08-17T09:26:03.741Z,99.90
2018-08-17T09:28:34.470Z,99.90
2018-08-17T09:31:08.648Z,99.90
2018-08-17T09:33:40.813Z,99.90
2018-08-17T09:36:11.781Z,99.90
2018-08-17T09:38:43.217Z,99.90
2018-08-17T09:41:13.596Z,99.90
2018-08-17T09:43:44.789Z,99.90
2018-08-17T09:46:16.106Z,99.90
2018-08-17T09:48:46.980Z,99.90
2018-08-17T09:51:18.923Z,99.90
2018-08-17T09:53:51.034Z,99.90
2018-08-17T09:56:22.114Z,99.90
2018-08-17T09:58:53.438Z,99.90
2018-08-17T10:01:29.321Z,99.90
2018-08-17T10:04:04.980Z,99.90
2018-08-17T10:06:40.852Z,99.90
2018-08-17T10:09:19.134Z,99.90
2018-08-17T10:11:52.357Z,99.90
2018-08-17T10:14:22.765Z,99.90
2018-08-17T10:16:54.159Z,99.90
2018-08-17T10:19:24.517Z,99.90
2018-08-17T10:21:58.055Z,99.90
2018-08-17T10:24:28.486Z,99.90
2018-08-17T10:26:58.964Z,99.90
2018-08-17T10:29:29.923Z,99.90
2018-08-17T10:32:00.531Z,99.90
2018-08-17T10:34:31.610Z,99.90
2018-08-17T10:37:03.791Z,99.90
2018-08-17T10:39:35.702Z,99.90
2018-08-17T10:42:06.532Z,99.90
2018-08-17T10:44:37.745Z,99.90
2018-08-17T10:47:08.821Z,99.90
2018-08-17T10:49:40.162Z,99.90
2018-08-17T10:52:11.592Z,99.90
2018-08-17T10:54:43.150Z,99.90
2018-08-17T10:57:14.996Z,99.90
2018-08-17T10:59:45.667Z,99.90
2018-08-17T11:02:16.146Z,99.90
2018-08-17T11:04:48.454Z,99.90
2018-08-17T11:07:25.151Z,99.90
2018-08-17T11:09:56.235Z,99.90
2018-08-17T11:12:28.037Z,99.90
2018-08-17T11:14:59.109Z,99.90
2018-08-17T11:17:30.431Z,99.90
2018-08-17T11:20:01.550Z,99.90
2018-08-17T11:22:33.117Z,99.90
2018-08-17T11:25:06.321Z,99.90
2018-08-17T11:27:38.966Z,99.90
2018-08-17T11:30:11.887Z,99.90
2018-08-17T11:32:44.152Z,99.90
2018-08-17T11:35:14.730Z,99.90
2018-08-17T11:37:45.925Z,99.90
2018-08-17T11:40:16.533Z,99.90
2018-08-17T11:42:48.691Z,99.90
2018-08-17T11:45:26.977Z,99.90
2018-08-17T11:47:58.893Z,99.90
2018-08-17T11:50:29.992Z,99.90
2018-08-17T11:53:01.420Z,99.90
2018-08-17T11:55:33.351Z,99.90
2018-08-17T11:58:04.663Z,99.90
2018-08-17T12:00:36.824Z,99.90
2018-08-17T12:03:09.464Z,99.90
2018-08-17T12:05:42.228Z,99.90
2018-08-17T12:08:15.099Z,99.90
2018-08-17T12:10:54.226Z,99.90
2018-08-17T12:13:26.276Z,99.90
2018-08-17T12:15:57.949Z,99.90
2018-08-17T12:18:28.801Z,99.90
2018-08-17T12:20:59.643Z,99.90
2018-08-17T12:23:30.986Z,99.90
2018-08-17T12:26:02.152Z,99.90
2018-08-17T12:28:33.248Z,99.90
2018-08-17T12:31:03.968Z,99.90
2018-08-17T12:33:35.651Z,99.90
2018-08-17T12:36:07.091Z,99.90
2018-08-17T12:38:38.653Z,99.90
2018-08-17T12:41:09.615Z,99.90
2018-08-17T12:43:40.815Z,99.90
2018-08-17T12:46:15.276Z,99.90
2018-08-17T12:48:46.822Z,99.90
2018-08-17T12:51:17.171Z,99.90
2018-08-17T12:53:48.610Z,99.90
2018-08-17T12:56:19.694Z,99.90
2018-08-17T12:58:50.173Z,99.90
2018-08-17T13:01:20.894Z,99.90
2018-08-17T13:03:52.698Z,99.90
2018-08-17T13:06:23.700Z,99.90
2018-08-17T13:08:55.495Z,99.90
2018-08-17T13:11:30.884Z,99.90
2018-08-17T13:14:09.397Z,99.90
2018-08-17T13:16:42.268Z,99.90
2018-08-17T13:19:16.109Z,99.90
2018-08-17T13:21:46.835Z,99.90
2018-08-17T13:24:18.536Z,99.90
2018-08-17T13:26:49.476Z,99.90
2018-08-17T13:29:20.439Z,99.90
2018-08-17T13:31:52.042Z,99.90
2018-08-17T13:34:25.363Z,99.90
2018-08-17T13:36:56.469Z,99.90
2018-08-17T13:39:27.770Z,99.90
2018-08-17T13:42:00.305Z,99.90
2018-08-17T13:44:31.985Z,99.90
2018-08-17T13:47:02.803Z,99.50
2018-08-17T13:49:33.539Z,99.90
2018-08-17T13:52:04.248Z,99.90
2018-08-17T13:54:35.469Z,99.80
2018-08-17T13:57:06.431Z,99.70
2018-08-17T13:59:37.732Z,99.90
2018-08-17T14:02:08.492Z,99.90
2018-08-17T14:04:40.741Z,99.90
2018-08-17T14:07:12.074Z,99.90
2018-08-17T14:09:42.898Z,99.90
2018-08-17T14:12:14.466Z,99.90
2018-08-17T14:14:45.176Z,99.90
2018-08-17T14:17:16.876Z,99.90
2018-08-17T14:19:47.942Z,99.90
2018-08-17T14:22:18.515Z,99.90
2018-08-17T14:24:50.233Z,99.90
2018-08-17T14:27:21.544Z,99.90
2018-08-17T14:29:52.506Z,99.90
2018-08-17T14:32:23.960Z,99.90
2018-08-17T14:34:55.753Z,99.90
2018-08-17T14:37:28.157Z,99.90
2018-08-17T14:39:58.872Z,99.90
2018-08-17T14:42:30.098Z,99.90
2018-08-17T14:45:01.054Z,99.90
2018-08-17T14:47:31.642Z,99.90
2018-08-17T14:50:02.604Z,99.90
2018-08-17T14:52:35.126Z,99.90
2018-08-17T14:55:11.646Z,99.90
2018-08-17T14:57:43.546Z,99.90
2018-08-17T15:00:16.090Z,99.90
2018-08-17T15:02:48.943Z,99.90
2018-08-17T15:05:20.741Z,99.90
2018-08-17T15:07:52.538Z,99.90
2018-08-17T15:10:25.911Z,99.90
2018-08-17T15:12:56.290Z,99.90
2018-08-17T15:15:27.458Z,99.90
2018-08-17T15:17:58.296Z,99.90
2018-08-17T15:20:29.026Z,99.90
2018-08-17T15:23:05.878Z,99.90
2018-08-17T15:25:37.914Z,99.90
2018-08-17T15:28:09.356Z,99.70
2018-08-17T15:30:55.578Z,99.70
2018-08-17T15:33:27.591Z,99.80
2018-08-17T15:35:59.410Z,99.90
2018-08-17T15:38:30.863Z,99.90
2018-08-17T15:41:03.230Z,99.90
2018-08-17T15:43:36.129Z,99.70
2018-08-17T15:46:08.151Z,99.20
2018-08-17T15:48:49.437Z,99.90
2018-08-17T15:51:20.145Z,99.10
2018-08-17T15:53:50.865Z,99.70
2018-08-17T15:56:21.835Z,98.90
2018-08-17T15:58:52.430Z,99.00
2018-08-17T16:01:23.770Z,98.90
2018-08-17T16:03:55.083Z,99.90
2018-08-17T16:06:26.164Z,99.00
2018-08-17T16:08:57.363Z,99.00
2018-08-17T16:11:31.209Z,99.40
2018-08-17T16:14:03.017Z,97.80
2018-08-17T16:16:33.614Z,98.80
2018-08-17T16:19:06.135Z,99.30
2018-08-17T16:21:37.773Z,98.70
2018-08-17T16:24:08.423Z,98.60
2018-08-17T16:26:39.847Z,98.60
2018-08-17T16:29:10.590Z,99.40
2018-08-17T16:31:42.845Z,98.70
2018-08-17T16:34:13.928Z,98.70
2018-08-17T16:36:44.907Z,98.90
2018-08-17T16:39:17.547Z,98.80
2018-08-17T16:41:48.639Z,97.80
2018-08-17T16:44:19.472Z,98.20
2018-08-17T16:46:50.532Z,98.10
2018-08-17T16:49:22.094Z,97.60
2018-08-17T16:51:52.830Z,98.60
2018-08-17T16:54:24.135Z,98.60
2018-08-17T16:56:55.577Z,98.70
2018-08-17T16:59:26.342Z,98.80
2018-08-17T17:01:59.076Z,98.90
2018-08-17T17:04:38.648Z,99.90
2018-08-17T17:07:10.987Z,99.50
2018-08-17T17:09:42.041Z,99.90
2018-08-17T17:12:17.101Z,99.90
2018-08-17T17:14:48.751Z,99.90
2018-08-17T17:17:20.311Z,99.90
2018-08-17T17:19:51.277Z,99.90
2018-08-17T17:22:23.564Z,99.90
2018-08-17T17:24:55.628Z,99.90
2018-08-17T17:27:26.438Z,99.90
2018-08-17T17:29:57.160Z,99.90
2018-08-17T17:32:28.490Z,99.90
2018-08-17T17:34:59.436Z,99.90
2018-08-17T17:37:30.647Z,99.90
2018-08-17T17:40:02.560Z,99.90
2018-08-17T17:42:33.651Z,99.90
2018-08-17T17:45:04.723Z,99.90
2018-08-17T17:47:36.048Z,99.90
2018-08-17T17:50:07.127Z,99.90
2018-08-17T17:52:38.820Z,99.90
2018-08-17T17:55:10.022Z,99.90
2018-08-17T17:57:41.226Z,99.90
2018-08-17T18:00:11.442Z,99.90
2018-08-17T18:02:42.287Z,99.90
2018-08-17T18:05:13.763Z,99.90
2018-08-17T18:07:50.134Z,99.90
2018-08-17T18:10:22.136Z,99.90
2018-08-17T18:12:53.630Z,99.90
2018-08-17T18:15:25.017Z,99.90
2018-08-17T18:17:56.097Z,99.90
2018-08-17T18:20:27.055Z,99.90
2018-08-17T18:22:57.790Z,99.90
2018-08-17T18:25:29.492Z,99.90
2018-08-17T18:28:00.554Z,99.90
2018-08-17T18:30:31.670Z,99.90
2018-08-17T18:33:03.187Z,99.90
2018-08-17T18:35:34.748Z,99.90
2018-08-17T18:38:05.840Z,99.90
2018-08-17T18:40:36.704Z,99.90
2018-08-17T18:43:08.269Z,99.90
2018-08-17T18:45:38.721Z,99.90
2018-08-17T18:48:09.316Z,99.90
2018-08-17T18:50:40.883Z,99.90
2018-08-17T18:53:11.984Z,99.90
2018-08-17T18:55:43.767Z,99.90
2018-08-17T18:58:15.223Z,99.90
2018-08-17T19:00:46.927Z,99.90
2018-08-17T19:03:18.696Z,99.90
2018-08-17T19:05:51.120Z,99.90
2018-08-17T19:08:22.318Z,99.90
2018-08-17T19:10:53.017Z,99.90
2018-08-17T19:13:23.498Z,99.90
2018-08-17T19:15:56.408Z,99.90
2018-08-17T19:18:32.627Z,99.90
2018-08-17T19:21:10.293Z,99.90
2018-08-17T19:23:41.256Z,99.90
2018-08-17T19:26:12.953Z,99.90
2018-08-17T19:28:45.023Z,99.90
2018-08-17T19:31:16.074Z,99.90
2018-08-17T19:33:47.143Z,99.90
2018-08-17T19:36:18.583Z,99.90
2018-08-17T19:38:49.466Z,99.90
2018-08-17T19:41:20.997Z,99.90
2018-08-17T19:43:51.851Z,99.90
2018-08-17T19:46:23.330Z,99.90
2018-08-17T19:48:54.032Z,99.90
2018-08-17T19:51:32.869Z,99.90
2018-08-17T19:54:04.455Z,99.90
2018-08-17T19:56:36.007Z,99.90
2018-08-17T19:59:07.234Z,99.90
2018-08-17T20:01:37.933Z,99.90
2018-08-17T20:04:08.655Z,99.90
2018-08-17T20:06:40.565Z,99.90
2018-08-17T20:09:12.735Z,99.90
2018-08-17T20:11:43.922Z,99.90
2018-08-17T20:14:14.645Z,99.90
2018-08-17T20:16:46.083Z,99.90
2018-08-17T20:19:17.128Z,99.90
2018-08-17T20:21:48.859Z,99.90
2018-08-17T20:24:20.452Z,99.90
2018-08-17T20:26:53.759Z,99.90
2018-08-17T20:29:24.876Z,99.90
2018-08-17T20:31:56.540Z,99.90
2018-08-17T20:34:27.885Z,99.90
2018-08-17T20:36:59.059Z,99.90
2018-08-17T20:39:31.376Z,99.90
2018-08-17T20:42:03.149Z,99.90
2018-08-17T20:44:33.756Z,99.90
2018-08-17T20:47:05.082Z,99.90
2018-08-17T20:49:36.509Z,99.90
2018-08-17T20:52:08.568Z,99.90
2018-08-17T20:54:39.745Z,99.90
2018-08-17T20:57:12.051Z,99.90
2018-08-17T20:59:43.366Z,99.90
2018-08-17T21:02:15.056Z,99.90
2018-08-17T21:04:46.596Z,99.90
2018-08-17T21:07:19.033Z,99.90
2018-08-17T21:09:50.454Z,99.90
2018-08-17T21:12:21.998Z,99.90
2018-08-17T21:14:52.734Z,99.90
2018-08-17T21:17:24.538Z,99.90
2018-08-17T21:19:55.247Z,99.90
2018-08-17T21:22:26.567Z,99.90
2018-08-17T21:24:58.885Z,99.90
2018-08-17T21:27:30.054Z,99.90
2018-08-17T21:30:01.129Z,99.90
2018-08-17T21:32:31.971Z,99.90
2018-08-17T21:35:03.501Z,99.90
2018-08-17T21:37:34.732Z,99.90
2018-08-17T21:40:13.642Z,99.90
2018-08-17T21:42:45.821Z,99.90
2018-08-17T21:45:18.808Z,99.90
2018-08-17T21:47:51.435Z,99.90
2018-08-17T21:50:22.502Z,99.90
2018-08-17T21:52:54.094Z,99.90
2018-08-17T21:55:25.536Z,99.90
2018-08-17T21:57:56.600Z,99.90
2018-08-17T22:00:30.924Z,99.90
2018-08-17T22:03:02.756Z,99.90
2018-08-17T22:05:35.832Z,99.90
2018-08-17T22:08:08.350Z,99.90
2018-08-17T22:10:41.254Z,99.90
2018-08-17T22:13:23.253Z,99.90
2018-08-17T22:15:53.846Z,99.90
2018-08-17T22:18:25.957Z,99.90
2018-08-17T22:20:56.480Z,99.90
2018-08-17T22:23:30.932Z,99.90
2018-08-17T22:26:03.017Z,99.90
2018-08-17T22:28:35.015Z,99.90
2018-08-17T22:31:06.210Z,99.90
2018-08-17T22:33:37.167Z,99.90
2018-08-17T22:36:12.462Z,99.90
2018-08-17T22:38:46.180Z,99.90
2018-08-17T22:41:17.248Z,99.90
2018-08-17T22:43:48.930Z,99.90
2018-08-17T22:46:20.767Z,99.90
2018-08-17T22:48:51.781Z,99.90
2018-08-17T22:51:24.232Z,99.90
2018-08-17T22:53:55.420Z,99.90
2018-08-17T22:56:25.901Z,99.90
2018-08-17T22:58:57.463Z,99.90
2018-08-17T23:01:32.024Z,99.90
2018-08-17T23:04:02.986Z,99.90
2018-08-17T23:06:35.856Z,99.90
2018-08-17T23:09:08.185Z,99.90
2018-08-17T23:11:39.237Z,99.90
2018-08-17T23:14:14.881Z,99.90
2018-08-17T23:16:49.705Z,99.90
2018-08-17T23:19:22.315Z,99.90
2018-08-17T23:21:54.143Z,99.90
2018-08-17T23:24:25.942Z,99.90
2018-08-17T23:26:57.121Z,99.90
2018-08-17T23:29:27.605Z,99.90
2018-08-17T23:32:00.145Z,99.90
2018-08-17T23:34:31.091Z,99.90
2018-08-17T23:37:02.323Z,99.90
2018-08-17T23:39:33.003Z,99.90
2018-08-17T23:42:03.859Z,99.90
2018-08-17T23:44:36.983Z,99.90
2018-08-17T23:47:07.935Z,99.90
2018-08-17T23:49:38.538Z,99.90
2018-08-17T23:52:09.865Z,99.90
2018-08-17T23:54:45.167Z,99.90
2018-08-17T23:57:17.568Z,99.90
2018-08-17T23:59:48.265Z,99.90
